Time;durP1;ratioP1;P1;durP2;ratioP2;P2;SDS_P1;SDS_P2;PMS_P1;PMS_P2;Temp;Humidity;BMP_temperature;BMP_pressure;BME280_temperature;BME280_humidity;BME280_pressure;Samples;Min_cycle;Max_cycle;Signal;HPM_P1;HPM_P2
2021/12/19 00:00:56;;;;;;;3.28;2.35;;;;;;;15.69;41.96;94410.44;4995514;28;20037;-92
2021/12/19 00:08:49;;;;;;;4.13;2.50;;;;;;;15.72;41.92;94411.47;5000346;28;20090;-93
2021/12/19 00:11:26;;;;;;;3.83;2.17;;;;;;;15.69;42.06;94412.41;4980897;28;20033;-90
2021/12/19 00:13:52;;;;;;;3.25;2.42;;;;;;;15.67;41.88;94403.94;4976468;28;20069;-91
2021/12/19 00:16:19;;;;;;;3.53;2.55;;;;;;;15.69;41.83;94404.97;4959785;28;20053;-93
2021/12/19 00:18:46;;;;;;;3.28;2.28;;;;;;;15.78;41.72;94404.16;4960541;28;20038;-91
2021/12/19 00:21:14;;;;;;;4.53;2.70;;;;;;;15.75;41.70;94394.94;4971065;28;20042;-90
2021/12/19 00:23:40;;;;;;;4.68;2.78;;;;;;;15.71;41.83;94391.63;5009173;28;20042;-91
2021/12/19 00:26:05;;;;;;;3.75;2.40;;;;;;;15.70;41.78;94384.69;4981848;28;20392;-92
2021/12/19 00:28:31;;;;;;;3.85;2.20;;;;;;;15.71;41.97;94388.16;4995627;28;20401;-90
2021/12/19 00:30:56;;;;;;;3.75;2.70;;;;;;;15.70;41.84;94395.56;4994978;28;20034;-91
2021/12/19 00:33:22;;;;;;;3.30;2.45;;;;;;;15.68;41.82;94378.94;5000829;28;20055;-91
2021/12/19 00:35:47;;;;;;;3.03;2.45;;;;;;;15.74;41.29;94365.41;4998850;28;20273;-91
2021/12/19 00:38:13;;;;;;;3.78;2.75;;;;;;;15.69;41.77;94371.50;5014845;28;20045;-92
2021/12/19 00:40:39;;;;;;;2.80;2.13;;;;;;;15.71;41.65;94372.56;4998350;28;20495;-92
2021/12/19 00:43:07;;;;;;;3.33;2.45;;;;;;;15.75;42.09;94369.66;4998390;28;20127;-93
2021/12/19 00:45:35;;;;;;;3.58;2.65;;;;;;;15.70;41.99;94360.13;4999294;28;20567;-93
2021/12/19 00:48:03;;;;;;;4.30;2.78;;;;;;;15.70;41.73;94371.03;4999321;28;20039;-93
2021/12/19 00:50:28;;;;;;;3.50;2.40;;;;;;;15.69;41.90;94369.53;4998709;28;20060;-92
2021/12/19 00:52:55;;;;;;;3.28;2.42;;;;;;;15.67;41.67;94352.91;5015143;28;20033;-92
2021/12/19 00:55:21;;;;;;;3.50;2.33;;;;;;;15.68;42.04;94353.66;4998323;28;20048;-91
2021/12/19 00:57:47;;;;;;;3.67;2.33;;;;;;;15.65;41.74;94344.44;4998007;28;20037;-93
2021/12/19 01:00:14;;;;;;;2.78;2.00;;;;;;;15.71;41.82;94333.63;5014312;28;20107;-90
2021/12/19 01:02:39;;;;;;;3.22;2.38;;;;;;;15.73;41.95;94325.75;4995258;28;20539;-92
2021/12/19 01:05:05;;;;;;;3.60;2.28;;;;;;;15.73;41.76;94309.38;4978387;28;20172;-92
2021/12/19 01:07:30;;;;;;;2.78;2.08;;;;;;;15.72;41.86;94305.91;4995603;28;20065;-90
2021/12/19 01:09:56;;;;;;;3.05;2.20;;;;;;;15.70;41.97;94324.72;4988049;28;20045;-92
2021/12/19 01:12:23;;;;;;;3.35;2.28;;;;;;;15.70;41.85;94330.16;5013829;28;20048;-90
2021/12/19 01:14:49;;;;;;;2.78;2.15;;;;;;;15.71;41.98;94330.91;5015248;28;20049;-91
2021/12/19 01:17:15;;;;;;;3.15;2.42;;;;;;;15.67;41.95;94322.91;4975144;28;20468;-91
2021/12/19 01:19:40;;;;;;;2.53;1.92;;;;;;;15.70;41.81;94318.50;4962091;28;20131;-93
2021/12/19 01:22:06;;;;;;;3.15;2.22;;;;;;;15.71;41.97;94320.75;4947335;28;20077;-92
2021/12/19 01:24:31;;;;;;;3.10;2.53;;;;;;;15.69;41.71;94323.19;4942453;28;20053;-91
2021/12/19 01:26:57;;;;;;;3.67;2.47;;;;;;;15.70;41.74;94313.06;4942123;28;20039;-91
2021/12/19 01:29:22;;;;;;;5.18;2.60;;;;;;;15.69;41.56;94317.75;4941631;28;20544;-92
2021/12/19 01:31:47;;;;;;;3.63;2.10;;;;;;;15.68;41.88;94307.31;4941527;28;20031;-92
2021/12/19 01:34:13;;;;;;;2.60;1.75;;;;;;;15.65;41.61;94300.06;4942556;28;20046;-91
2021/12/19 01:36:42;;;;;;;2.45;1.80;;;;;;;15.63;41.72;94294.34;4961574;28;20046;-93
2021/12/19 01:39:08;;;;;;;2.72;2.10;;;;;;;15.66;42.02;94302.34;4977040;28;20042;-91
2021/12/19 01:41:33;;;;;;;2.45;2.00;;;;;;;15.63;41.87;94292.38;4961177;28;20104;-92
2021/12/19 01:43:58;;;;;;;2.83;2.10;;;;;;;15.67;41.69;94292.94;4977175;28;20056;-92
2021/12/19 01:46:24;;;;;;;2.63;1.98;;;;;;;15.65;41.81;94297.34;4945923;28;20042;-92
2021/12/19 01:48:49;;;;;;;2.90;1.90;;;;;;;15.61;42.18;94303.00;4986273;28;20048;-90
2021/12/19 01:51:15;;;;;;;3.42;2.33;;;;;;;15.65;41.82;94298.09;5016701;28;20178;-91
2021/12/19 01:53:40;;;;;;;3.53;2.28;;;;;;;15.70;41.97;94299.44;5017821;28;20071;-92
2021/12/19 01:56:07;;;;;;;2.40;1.90;;;;;;;15.65;41.62;94311.72;5000830;28;20508;-92
2021/12/19 01:58:33;;;;;;;4.32;1.98;;;;;;;15.64;41.75;94307.50;4998103;28;20034;-91
2021/12/19 02:00:58;;;;;;;3.70;1.83;;;;;;;15.66;42.02;94313.25;4998113;28;20095;-92
2021/12/19 02:03:25;;;;;;;2.80;2.05;;;;;;;15.66;42.05;94305.06;4999626;28;20037;-93
2021/12/19 02:05:51;;;;;;;2.95;2.28;;;;;;;15.74;41.43;94297.25;5001237;28;20400;-92
2021/12/19 02:08:17;;;;;;;3.33;2.20;;;;;;;15.66;41.93;94296.13;5012616;28;20279;-92
2021/12/19 02:10:43;;;;;;;2.97;2.22;;;;;;;15.64;41.74;94293.88;4997966;28;20071;-91
2021/12/19 02:13:10;;;;;;;4.82;2.63;;;;;;;15.68;41.57;94282.78;4999587;28;20041;-95
2021/12/19 02:15:35;;;;;;;3.65;2.10;;;;;;;15.64;41.84;94266.63;5000264;28;20040;-92
2021/12/19 02:18:05;;;;;;;3.17;2.15;;;;;;;15.64;41.98;94274.03;5017324;28;20269;-93
2021/12/19 02:20:32;;;;;;;4.60;2.20;;;;;;;15.66;41.99;94280.53;5000611;28;20045;-91
2021/12/19 02:22:58;;;;;;;2.53;1.98;;;;;;;15.63;42.14;94284.19;5000311;28;20111;-91
2021/12/19 02:25:25;;;;;;;1.83;1.60;;;;;;;15.64;41.87;94271.31;5000362;28;20033;-90
2021/12/19 02:27:50;;;;;;;2.50;1.98;;;;;;;15.65;41.92;94273.56;5000583;28;20487;-92
2021/12/19 02:30:16;;;;;;;2.67;2.08;;;;;;;15.66;42.06;94275.06;5000669;28;20068;-92
2021/12/19 02:32:41;;;;;;;2.50;1.85;;;;;;;15.66;41.82;94261.44;5016597;28;20037;-93
2021/12/19 02:35:10;;;;;;;3.17;2.40;;;;;;;15.71;41.58;94268.22;5015980;28;20597;-92
2021/12/19 02:48:12;;;;;;;3.13;2.42;;;;;;;15.70;41.85;94239.47;4956813;28;20454;-94
2021/12/19 02:50:44;;;;;;;2.55;1.92;;;;;;;15.68;41.69;94250.06;4924264;28;20070;-93
2021/12/19 02:53:10;;;;;;;2.72;2.15;;;;;;;15.70;41.64;94253.84;4954046;28;20130;-93
2021/12/19 02:55:35;;;;;;;2.92;2.17;;;;;;;15.71;41.35;94254.59;4953358;28;20126;-94
2021/12/19 02:58:01;;;;;;;2.15;1.70;;;;;;;15.62;41.47;94252.72;4936610;28;20042;-91
2021/12/19 03:00:26;;;;;;;2.45;1.52;;;;;;;15.59;41.92;94237.31;4952411;28;20031;-92
2021/12/19 03:02:52;;;;;;;2.40;1.83;;;;;;;15.66;41.80;94234.19;4950218;28;20129;-91
2021/12/19 03:05:18;;;;;;;2.88;2.20;;;;;;;15.65;41.79;94245.56;4953467;28;20046;-93
2021/12/19 03:07:45;;;;;;;3.08;2.10;;;;;;;15.67;41.98;94235.69;4937376;28;20051;-92
2021/12/19 03:18:10;;;;;;;2.55;1.77;;;;;;;15.66;41.81;94226.03;4955368;28;20053;-93
2021/12/19 03:20:36;;;;;;;2.20;1.67;;;;;;;15.68;41.58;94226.31;4937581;28;20267;-92
2021/12/19 03:23:02;;;;;;;2.63;2.15;;;;;;;15.67;41.93;94226.78;4986784;28;20037;-93
2021/12/19 03:25:28;;;;;;;2.53;1.80;;;;;;;15.64;41.46;94225.72;4999680;28;20396;-93
2021/12/19 03:27:54;;;;;;;3.15;1.67;;;;;;;15.67;41.88;94229.50;5016552;28;20057;-93
2021/12/19 03:30:19;;;;;;;3.30;2.20;;;;;;;15.68;41.75;94225.53;5015791;28;20153;-91
2021/12/19 03:32:44;;;;;;;3.13;1.90;;;;;;;15.69;41.77;94224.31;5015703;28;20235;-92
2021/12/19 03:35:10;;;;;;;2.13;1.73;;;;;;;15.71;41.39;94211.72;5001420;28;20034;-91
2021/12/19 03:37:35;;;;;;;2.15;1.80;;;;;;;15.69;41.79;94194.34;4980059;28;20390;-92
2021/12/19 03:40:12;;;;;;;2.45;1.77;;;;;;;15.68;41.78;94190.13;4979671;28;20123;-91
2021/12/19 03:42:41;;;;;;;2.67;2.00;;;;;;;15.68;41.57;94190.13;4983537;28;20444;-92
2021/12/19 03:45:09;;;;;;;2.42;1.90;;;;;;;15.65;41.96;94183.63;4979701;28;20059;-91
2021/12/19 03:47:34;;;;;;;2.38;2.03;;;;;;;15.68;41.75;94177.25;4995682;28;20190;-93
2021/12/19 03:50:01;;;;;;;2.55;1.90;;;;;;;15.68;41.48;94173.75;5000013;28;20033;-94
2021/12/19 03:52:27;;;;;;;2.28;1.90;;;;;;;15.64;41.88;94178.66;5015607;28;20060;-93
2021/12/19 03:54:52;;;;;;;2.50;1.88;;;;;;;15.63;41.56;94172.44;4999166;28;20049;-93
2021/12/19 03:57:18;;;;;;;1.98;1.52;;;;;;;15.64;41.90;94173.94;5015110;28;20091;-91
2021/12/19 03:59:47;;;;;;;2.63;1.90;;;;;;;15.62;42.09;94192.00;5015045;28;20049;-93
2021/12/19 04:02:12;;;;;;;1.92;1.63;;;;;;;15.66;41.71;94190.59;4990942;28;20045;-91
2021/12/19 04:04:39;;;;;;;4.13;2.13;;;;;;;15.65;41.95;94182.88;4959058;28;20053;-93
2021/12/19 04:07:04;;;;;;;2.30;1.70;;;;;;;15.67;41.44;94183.16;4974717;28;20046;-92
2021/12/19 04:09:30;;;;;;;1.50;1.30;;;;;;;15.63;41.68;94177.16;4958979;28;20034;-93
2021/12/19 04:11:56;;;;;;;2.85;2.03;;;;;;;15.62;41.58;94183.81;4974069;28;20045;-92
2021/12/19 04:14:22;;;;;;;2.08;1.77;;;;;;;15.66;41.72;94187.84;4974117;28;20050;-93
2021/12/19 04:16:47;;;;;;;3.47;1.80;;;;;;;15.61;41.68;94169.44;4974754;28;20168;-90
2021/12/19 04:19:13;;;;;;;2.72;1.80;;;;;;;15.61;41.92;94169.44;4974094;28;20045;-92
2021/12/19 04:21:38;;;;;;;2.35;1.75;;;;;;;15.71;41.72;94165.38;4991484;28;20045;-93
2021/12/19 04:24:04;;;;;;;3.28;2.10;;;;;;;15.65;41.49;94156.38;4974240;28;20038;-93
2021/12/19 04:26:29;;;;;;;1.65;1.30;;;;;;;15.67;41.80;94169.53;4958962;28;20449;-90
2021/12/19 04:28:56;;;;;;;2.63;1.75;;;;;;;15.64;41.58;94170.47;4975154;28;20053;-93
2021/12/19 04:31:22;;;;;;;2.63;1.85;;;;;;;15.66;41.76;94162.56;4958070;28;20042;-91
2021/12/19 04:33:48;;;;;;;2.22;1.63;;;;;;;15.66;41.69;94159.84;4979489;28;20116;-92
2021/12/19 04:36:21;;;;;;;2.58;1.77;;;;;;;15.66;41.60;94163.31;5012831;28;20376;-91
2021/12/19 04:55:22;;;;;;;3.35;1.80;;;;;;;15.64;41.75;94165.03;5003107;28;20033;-92
2021/12/19 04:57:54;;;;;;;1.80;1.33;;;;;;;15.65;41.66;94174.72;5006626;28;20041;-93
2021/12/19 05:00:32;;;;;;;2.45;1.65;;;;;;;15.64;41.70;94165.03;4984195;28;20064;-93
2021/12/19 05:03:03;;;;;;;1.92;1.38;;;;;;;15.63;41.71;94171.69;4986390;28;20077;-90
2021/12/19 05:16:25;;;;;;;2.30;1.20;;;;;;;15.64;41.70;94138.53;5008714;28;20110;-91
2021/12/19 05:18:53;;;;;;;2.42;1.60;;;;;;;15.64;41.63;94130.34;4998718;28;20481;-93
2021/12/19 05:21:24;;;;;;;2.30;1.42;;;;;;;15.61;41.66;94127.81;5014276;28;20073;-91
2021/12/19 05:24:17;;;;;;;2.28;1.60;;;;;;;15.63;41.60;94134.28;4989709;28;20456;-92
2021/12/19 05:26:42;;;;;;;2.15;1.45;;;;;;;15.62;41.58;94137.50;5008763;28;20542;-91
2021/12/19 05:29:10;;;;;;;2.13;1.35;;;;;;;15.58;41.75;94136.97;5015676;28;20088;-91
2021/12/19 05:31:35;;;;;;;1.95;1.55;;;;;;;15.59;41.39;94138.47;4983962;28;20485;-91
2021/12/19 05:34:01;;;;;;;1.58;1.33;;;;;;;15.62;41.89;94137.50;4963657;28;20042;-90
2021/12/19 05:47:07;;;;;;;2.70;1.67;;;;;;;15.67;41.74;94131.38;5007300;28;20047;-92
2021/12/19 05:49:32;;;;;;;1.67;1.17;;;;;;;15.64;41.57;94127.63;4990535;28;20033;-93
2021/12/19 05:51:58;;;;;;;2.45;1.40;;;;;;;15.67;41.89;94120.47;4981836;28;20109;-94
2021/12/19 05:54:23;;;;;;;3.17;2.03;;;;;;;15.65;41.70;94123.66;4951277;28;20126;-92
2021/12/19 05:56:51;;;;;;;2.50;1.83;;;;;;;15.65;41.30;94118.22;4982762;28;20049;-91
2021/12/19 05:59:16;;;;;;;2.55;1.55;;;;;;;15.64;41.67;94124.91;4965375;28;20066;-91
2021/12/19 06:01:43;;;;;;;2.25;1.60;;;;;;;15.68;41.29;94105.63;4976622;28;20041;-92
2021/12/19 06:04:08;;;;;;;2.85;1.45;;;;;;;15.63;41.11;94109.75;4959540;28;20038;-94
2021/12/19 06:06:34;;;;;;;5.53;2.50;;;;;;;15.61;41.62;94114.19;4981005;28;20073;-93
2021/12/19 06:08:59;;;;;;;2.92;1.83;;;;;;;15.63;41.61;94117.94;4972420;28;20046;-92
2021/12/19 06:11:24;;;;;;;2.80;1.77;;;;;;;15.63;41.35;94115.22;4987748;28;20043;-94
2021/12/19 06:13:50;;;;;;;2.70;1.63;;;;;;;15.66;41.58;94117.00;4941663;28;20043;-92
2021/12/19 06:16:15;;;;;;;3.25;1.80;;;;;;;15.63;41.27;94130.81;4988775;28;20094;-91
2021/12/19 06:18:41;;;;;;;2.60;1.73;;;;;;;15.64;41.37;94121.41;4957961;28;20050;-93
2021/12/19 06:21:06;;;;;;;2.00;1.60;;;;;;;15.68;41.73;94116.53;4972798;28;20053;-92
2021/12/19 06:23:33;;;;;;;2.15;1.60;;;;;;;15.64;41.69;94116.72;4970200;28;20041;-93
2021/12/19 06:25:58;;;;;;;2.20;1.80;;;;;;;15.62;41.79;94112.97;4978025;28;20128;-94
2021/12/19 06:28:24;;;;;;;4.10;2.97;;;;;;;15.64;41.62;94094.91;4977538;28;20111;-91
2021/12/19 06:30:49;;;;;;;3.53;2.08;;;;;;;15.62;41.70;94112.97;4977532;28;20049;-93
2021/12/19 06:33:15;;;;;;;5.93;4.18;;;;;;;15.59;41.65;94101.03;4961019;28;20045;-95
2021/12/19 06:35:40;;;;;;;8.35;5.00;;;;;;;15.60;41.32;94107.25;4995689;28;20633;-92
2021/12/19 06:38:06;;;;;;;5.40;3.50;;;;;;;15.59;41.28;94124.84;4980958;28;20475;-92
2021/12/19 06:40:32;;;;;;;1.98;1.58;;;;;;;15.63;41.38;94100.84;4981299;28;20048;-92
2021/12/19 06:42:57;;;;;;;3.75;2.28;;;;;;;15.61;41.54;94097.84;4997056;28;20053;-92
2021/12/19 06:45:22;;;;;;;2.72;1.95;;;;;;;15.61;41.77;94095.88;4980426;28;20519;-92
2021/12/19 06:47:48;;;;;;;7.30;3.95;;;;;;;15.60;41.22;94090.88;4980479;28;20034;-92
2021/12/19 06:50:15;;;;;;;2.35;1.40;;;;;;;15.60;41.66;94104.50;4981000;28;20106;-94
2021/12/19 06:52:40;;;;;;;7.05;4.32;;;;;;;15.67;41.45;94099.41;4997402;28;20034;-90
2021/12/19 06:55:07;;;;;;;7.38;4.22;;;;;;;15.57;41.68;94097.31;5002558;28;20039;-91
2021/12/19 06:57:33;;;;;;;3.00;2.10;;;;;;;15.60;41.50;94099.06;5013074;28;20034;-91
2021/12/19 06:59:58;;;;;;;3.97;2.58;;;;;;;15.62;41.35;94102.06;4990987;28;20044;-92
2021/12/19 07:02:24;;;;;;;4.47;2.38;;;;;;;15.65;41.18;94098.41;4988857;28;20097;-91
2021/12/19 07:04:49;;;;;;;4.38;2.60;;;;;;;15.69;41.16;94110.59;5015840;28;20048;-91
2021/12/19 07:07:15;;;;;;;3.03;2.13;;;;;;;15.62;41.42;94100.09;5015398;28;20044;-91
2021/12/19 07:09:40;;;;;;;5.60;3.92;;;;;;;15.59;41.51;94083.97;5016380;28;20037;-92
2021/12/19 07:12:07;;;;;;;2.88;1.95;;;;;;;15.67;41.18;94096.69;5006197;28;20329;-92
2021/12/19 07:14:32;;;;;;;3.70;1.95;;;;;;;15.64;41.49;94099.63;4976149;28;20072;-93
2021/12/19 07:16:57;;;;;;;2.42;1.65;;;;;;;15.68;41.35;94092.00;4992632;28;20046;-93
2021/12/19 07:19:24;;;;;;;2.30;1.60;;;;;;;15.60;41.17;94082.72;4976153;28;20034;-92
2021/12/19 07:21:49;;;;;;;3.70;2.05;;;;;;;15.65;41.49;94077.34;4977058;28;20069;-92
2021/12/19 07:24:15;;;;;;;5.57;4.50;;;;;;;15.60;41.62;94086.19;4979326;28;20072;-93
2021/12/19 07:26:40;;;;;;;2.97;2.05;;;;;;;15.63;41.77;94085.25;4993224;28;20497;-92
2021/12/19 07:29:05;;;;;;;3.92;2.10;;;;;;;15.57;41.61;94076.25;4992638;28;20045;-93
2021/12/19 07:31:35;;;;;;;3.05;2.00;;;;;;;15.62;41.58;94067.38;4992253;28;20041;-91
2021/12/19 07:34:00;;;;;;;3.55;2.30;;;;;;;15.59;41.80;94068.34;4992918;28;20038;-93
2021/12/19 07:36:29;;;;;;;3.28;2.25;;;;;;;15.59;41.46;94073.78;4987389;28;20508;-91
2021/12/19 07:39:06;;;;;;;9.50;5.70;;;;;;;15.57;41.24;94070.81;4981130;28;20041;-91
2021/12/19 07:41:31;;;;;;;4.57;2.75;;;;;;;15.61;41.29;94071.34;4982062;28;20491;-91
2021/12/19 07:43:57;;;;;;;3.00;2.25;;;;;;;15.63;41.04;94062.69;4979717;28;20492;-92
2021/12/19 07:46:22;;;;;;;3.53;2.20;;;;;;;15.66;41.16;94067.19;4995012;28;20045;-92
2021/12/19 07:48:47;;;;;;;3.65;2.15;;;;;;;15.63;41.63;94062.69;4978952;28;20099;-92
2021/12/19 07:51:13;;;;;;;3.00;2.05;;;;;;;15.64;41.29;94054.03;4979032;28;20492;-92
2021/12/19 07:53:38;;;;;;;3.72;2.47;;;;;;;15.62;41.37;94070.09;4979351;28;20566;-93
2021/12/19 07:56:04;;;;;;;4.32;2.78;;;;;;;15.63;41.41;94065.41;4979291;28;20044;-91
2021/12/19 07:58:29;;;;;;;3.83;2.38;;;;;;;15.62;41.29;94045.59;4979498;28;20041;-92
2021/12/19 08:00:55;;;;;;;3.63;2.42;;;;;;;15.65;41.68;94044.63;4978462;28;20037;-91
2021/12/19 08:03:20;;;;;;;4.10;2.17;;;;;;;15.60;41.38;94048.03;4975980;28;20038;-92
2021/12/19 08:05:46;;;;;;;11.50;6.68;;;;;;;15.61;41.36;94046.06;4976321;28;20061;-92
2021/12/19 08:08:16;;;;;;;4.03;2.55;;;;;;;15.57;41.43;94051.75;4975200;28;20045;-92
2021/12/19 08:13:07;;;;;;;4.75;2.60;;;;;;;15.66;41.00;94067.94;4998112;28;20037;-91
2021/12/19 08:15:33;;;;;;;4.75;3.03;;;;;;;15.65;41.52;94054.78;5012454;28;20089;-91
2021/12/19 08:17:59;;;;;;;4.35;2.92;;;;;;;15.62;41.17;94053.00;4995597;28;20045;-90
2021/12/19 08:20:26;;;;;;;5.78;3.97;;;;;;;15.63;41.37;94044.34;4995196;28;20225;-90
2021/12/19 08:22:51;;;;;;;5.97;3.08;;;;;;;15.65;41.30;94038.44;4995931;28;20065;-92
2021/12/19 08:25:17;;;;;;;5.82;2.50;;;;;;;15.61;41.49;94046.06;4990951;28;20139;-92
2021/12/19 08:27:42;;;;;;;4.55;2.42;;;;;;;15.64;41.54;94028.75;4994635;28;20042;-92
2021/12/19 08:30:10;;;;;;;8.20;3.08;;;;;;;15.62;41.67;94029.22;4995099;28;20042;-92
2021/12/19 08:32:36;;;;;;;6.35;3.55;;;;;;;15.62;41.29;94025.75;5002199;28;20060;-92
2021/12/19 08:35:01;;;;;;;9.18;5.13;;;;;;;15.64;41.44;94015.88;5013170;28;20507;-93
2021/12/19 08:37:27;;;;;;;4.13;2.60;;;;;;;15.60;41.39;94022.75;4997548;28;20037;-92
2021/12/19 08:39:52;;;;;;;5.15;3.05;;;;;;;15.62;41.59;94028.47;5031258;28;20095;-92
2021/12/19 08:42:18;;;;;;;6.65;4.30;;;;;;;15.58;41.45;94017.81;5013774;28;20100;-92
2021/12/19 08:44:43;;;;;;;8.40;5.28;;;;;;;15.61;41.59;94024.25;5015156;28;20076;-91
2021/12/19 08:47:10;;;;;;;3.28;2.20;;;;;;;15.61;41.42;94011.38;5014419;28;20246;-92
2021/12/19 08:49:35;;;;;;;10.73;4.93;;;;;;;15.66;41.18;94005.25;4997861;28;20045;-92
2021/12/19 08:52:02;;;;;;;4.95;2.67;;;;;;;15.62;41.58;93993.81;4998555;28;20045;-92
2021/12/19 08:54:27;;;;;;;7.68;3.70;;;;;;;15.61;41.39;93995.03;4998405;28;20408;-91
2021/12/19 08:56:53;;;;;;;4.15;2.53;;;;;;;15.63;41.15;94002.72;4998052;28;20068;-92
2021/12/19 08:59:18;;;;;;;8.93;5.15;;;;;;;15.63;41.23;94010.91;5013753;28;20041;-92
2021/12/19 09:01:43;;;;;;;6.40;3.47;;;;;;;15.64;41.56;94004.97;5031419;28;20037;-91
2021/12/19 09:04:09;;;;;;;4.03;2.60;;;;;;;15.63;41.20;94000.75;5014414;28;20048;-91
2021/12/19 09:06:34;;;;;;;6.57;2.83;;;;;;;15.61;41.37;94007.91;5031169;28;20045;-91
2021/12/19 09:09:01;;;;;;;6.80;3.88;;;;;;;15.56;41.54;94000.44;5014377;28;20061;-92
2021/12/19 09:11:27;;;;;;;4.40;2.80;;;;;;;15.60;41.63;93990.06;5011898;28;20059;-92
2021/12/19 09:13:52;;;;;;;16.88;10.13;;;;;;;15.59;41.59;93997.47;4994224;28;20492;-92
2021/12/19 09:16:18;;;;;;;4.93;2.90;;;;;;;15.58;41.67;93996.00;4978523;28;20503;-92
2021/12/19 09:18:43;;;;;;;6.20;3.50;;;;;;;15.61;41.56;93997.00;4978724;28;20037;-91
2021/12/19 09:21:08;;;;;;;5.25;2.90;;;;;;;15.59;41.38;93989.31;4978184;28;20107;-92
2021/12/19 09:23:34;;;;;;;3.55;2.28;;;;;;;15.62;41.54;93984.88;4978568;28;20049;-92
2021/12/19 09:26:01;;;;;;;7.80;4.50;;;;;;;15.60;41.08;93979.16;4997307;28;20037;-92
2021/12/19 09:28:26;;;;;;;19.73;10.55;;;;;;;15.60;41.72;93992.78;4998971;28;20048;-90
2021/12/19 09:30:52;;;;;;;17.63;9.00;;;;;;;15.56;41.55;93978.63;4998552;28;20059;-92
2021/12/19 09:33:17;;;;;;;11.52;7.78;;;;;;;15.56;41.52;93979.38;5003133;28;20069;-92
2021/12/19 09:35:42;;;;;;;9.85;5.43;;;;;;;15.55;41.29;93980.59;4975421;28;20481;-93
2021/12/19 09:38:08;;;;;;;15.70;5.93;;;;;;;15.61;40.92;93989.59;4977022;28;20037;-92
2021/12/19 09:40:38;;;;;;;11.50;5.15;;;;;;;15.62;41.04;93974.72;4982006;28;20034;-91
2021/12/19 09:43:20;;;;;;;7.50;4.28;;;;;;;15.57;41.25;93983.59;4982150;28;20030;-91
2021/12/19 09:45:46;;;;;;;8.27;3.90;;;;;;;15.60;41.29;93990.06;4985752;28;20068;-91
2021/12/19 09:48:11;;;;;;;8.43;4.10;;;;;;;15.58;41.75;93973.47;4980605;28;20408;-92
2021/12/19 09:50:36;;;;;;;6.25;3.33;;;;;;;15.66;41.46;93955.44;4981414;28;20396;-90
2021/12/19 09:53:02;;;;;;;7.30;4.07;;;;;;;15.60;41.09;93960.09;4981615;28;20042;-91
2021/12/19 09:55:28;;;;;;;10.77;4.85;;;;;;;15.63;41.41;93950.94;4981589;28;20095;-92
2021/12/19 09:57:54;;;;;;;5.50;3.40;;;;;;;15.56;41.24;93943.22;4982038;28;20054;-91
2021/12/19 10:00:19;;;;;;;6.03;3.67;;;;;;;15.63;41.63;93940.81;4980289;28;20129;-91
2021/12/19 10:02:45;;;;;;;7.30;3.65;;;;;;;15.67;41.24;93940.59;4982133;28;20125;-93
2021/12/19 10:05:15;;;;;;;9.98;3.47;;;;;;;15.63;41.08;93937.31;4980221;28;20463;-92
2021/12/19 10:07:49;;;;;;;5.33;3.20;;;;;;;15.64;41.44;93927.91;5013207;28;20045;-91
2021/12/19 10:10:24;;;;;;;7.93;3.78;;;;;;;15.62;41.18;93922.94;4979112;28;20072;-91
2021/12/19 10:12:53;;;;;;;5.70;3.58;;;;;;;15.65;41.46;93921.25;4987876;28;20042;-90
2021/12/19 10:15:25;;;;;;;9.27;4.97;;;;;;;15.60;41.31;93913.75;4980311;28;20117;-93
2021/12/19 10:18:12;;;;;;;6.63;3.05;;;;;;;15.62;41.27;93895.69;4997988;28;20037;-91
2021/12/19 10:20:48;;;;;;;6.57;3.83;;;;;;;15.69;41.16;93887.09;4980790;28;20033;-91
2021/12/19 10:23:17;;;;;;;8.63;4.32;;;;;;;15.68;41.11;93882.13;4981086;28;20052;-91
2021/12/19 10:25:42;;;;;;;5.00;3.35;;;;;;;15.69;41.46;93883.63;4980820;28;20033;-93
2021/12/19 10:28:09;;;;;;;7.50;4.22;;;;;;;15.67;41.48;93880.63;4980936;28;20116;-93
2021/12/19 10:30:36;;;;;;;5.05;3.42;;;;;;;15.68;41.22;93882.13;4997298;28;20037;-93
2021/12/19 10:33:03;;;;;;;12.65;7.75;;;;;;;15.64;41.37;93887.03;4985507;28;20447;-91
2021/12/19 10:35:39;;;;;;;6.57;3.55;;;;;;;15.68;41.13;93873.97;5008442;28;20041;-92
2021/12/19 10:38:05;;;;;;;6.22;3.90;;;;;;;15.66;41.47;93862.78;4983257;28;20068;-93
2021/12/19 10:40:31;;;;;;;5.15;3.53;;;;;;;15.64;41.49;93882.34;4977704;28;20452;-92
2021/12/19 10:43:00;;;;;;;4.53;2.90;;;;;;;15.66;41.25;93865.50;4977458;28;20045;-91
2021/12/19 10:45:43;;;;;;;7.85;3.15;;;;;;;15.66;41.20;93876.41;4977588;28;20034;-91
2021/12/19 10:48:18;;;;;;;5.53;2.97;;;;;;;15.65;41.25;93850.38;4978585;28;20030;-90
2021/12/19 10:50:47;;;;;;;6.68;4.15;;;;;;;15.64;41.35;93862.50;4979952;28;20033;-91
2021/12/19 10:53:15;;;;;;;6.57;4.05;;;;;;;15.67;41.29;93848.69;5012886;28;20041;-93
2021/12/19 10:55:41;;;;;;;5.25;2.75;;;;;;;15.64;41.34;93860.53;4997798;28;20128;-92
2021/12/19 10:58:18;;;;;;;6.20;3.20;;;;;;;15.64;41.34;93843.44;4980734;28;20117;-93
2021/12/19 11:00:55;;;;;;;8.50;4.43;;;;;;;15.63;41.53;93837.25;5011726;28;20030;-91
2021/12/19 11:03:44;;;;;;;3.45;2.65;;;;;;;15.66;41.30;93824.63;4994896;28;20061;-92
2021/12/19 11:06:16;;;;;;;6.07;3.40;;;;;;;15.70;41.37;93827.88;5012782;28;20526;-92
2021/12/19 11:08:43;;;;;;;6.60;3.53;;;;;;;15.67;41.24;93818.69;5013366;28;20057;-92
2021/12/19 11:11:08;;;;;;;6.78;3.40;;;;;;;15.67;41.29;93820.69;4997945;28;20037;-91
2021/12/19 11:13:34;;;;;;;8.15;5.82;;;;;;;15.61;41.71;93801.53;4988451;28;20049;-88
2021/12/19 11:16:01;;;;;;;4.47;3.30;;;;;;;15.64;41.53;93775.31;4998313;28;20035;-89
2021/12/19 11:18:30;;;;;;;18.40;13.35;;;;;;;15.77;41.39;93775.69;4993709;28;20041;-93
2021/12/19 11:20:57;;;;;;;19.48;11.75;;;;;;;15.81;41.40;93759.06;5001671;28;20047;-94
2021/12/19 11:25:51;;;;;;;4.63;3.35;;;;;;;15.72;41.36;93744.41;5176836;22;20809;-90
2021/12/19 11:28:17;;;;;;;13.85;7.95;;;;;;;15.72;41.04;93751.84;5126736;23;20032;-89
2021/12/19 11:30:42;;;;;;;8.57;5.63;;;;;;;15.71;41.52;93750.34;5039523;22;20041;-90
2021/12/19 11:33:19;;;;;;;15.85;9.90;;;;;;;15.66;41.48;93742.88;5046877;23;20044;-93
2021/12/19 11:35:51;;;;;;;9.98;6.40;;;;;;;15.68;41.57;93751.31;5062613;23;20029;-91
2021/12/19 11:38:20;;;;;;;8.32;5.32;;;;;;;15.70;41.19;93746.88;5050570;23;20024;-90
2021/12/19 11:40:46;;;;;;;11.65;6.53;;;;;;;15.77;41.29;93754.63;5141450;22;20050;-90
2021/12/19 11:43:13;;;;;;;7.60;4.82;;;;;;;15.70;41.51;93740.69;5035982;23;20021;-90
2021/12/19 11:45:46;;;;;;;8.15;5.88;;;;;;;15.68;41.34;93737.69;5051039;23;20116;-89
2021/12/19 11:48:26;;;;;;;9.38;5.60;;;;;;;15.69;41.40;93720.09;5066080;22;20044;-94
2021/12/19 11:51:22;;;;;;;9.75;6.43;;;;;;;15.69;41.45;93706.47;5074625;22;20071;-90
2021/12/19 11:54:16;;;;;;;9.13;5.25;;;;;;;15.68;41.13;93704.97;5077937;22;20040;-91
2021/12/19 11:57:09;;;;;;;7.82;4.75;;;;;;;15.70;41.18;93697.06;5074985;22;20033;-90
2021/12/19 12:00:14;;;;;;;8.80;5.60;;;;;;;15.71;41.26;93695.84;5044446;22;20036;-90
2021/12/19 12:02:40;;;;;;;14.60;9.20;;;;;;;15.70;40.97;93697.81;5045660;23;20069;-90
2021/12/19 12:08:11;;;;;;;8.90;6.28;;;;;;;15.66;41.46;93704.72;5089117;22;20060;-90
2021/12/19 12:11:04;;;;;;;8.80;5.90;;;;;;;15.69;41.41;93695.56;5058952;28;20017;-92
2021/12/19 12:13:33;;;;;;;6.43;4.63;;;;;;;15.67;41.34;93700.75;5059391;23;20080;31
2021/12/19 12:16:23;;;;;;;6.93;4.63;;;;;;;15.68;41.19;93707.72;5156019;22;20077;-90
2021/12/19 12:19:12;;;;;;;9.65;6.07;;;;;;;15.68;41.52;93703.00;5102702;22;20033;-90
2021/12/19 12:21:57;;;;;;;16.25;9.70;;;;;;;15.65;41.38;93695.06;5080867;22;20055;-90
2021/12/19 12:27:00;;;;;;;8.15;5.80;;;;;;;15.69;41.37;93690.13;5075169;22;20060;-89
2021/12/19 12:29:42;;;;;;;6.35;4.60;;;;;;;15.66;41.34;93682.91;5086109;22;20035;-90
2021/12/19 12:32:07;;;;;;;6.60;4.80;;;;;;;15.67;41.25;93678.97;5076253;23;20034;-92
2021/12/19 12:34:33;;;;;;;7.93;5.55;;;;;;;15.69;41.34;93674.53;5084283;22;20043;-89
2021/12/19 12:36:59;;;;;;;8.55;5.72;;;;;;;15.68;41.24;93681.19;5051530;23;20029;-91
2021/12/19 12:42:00;;;;;;;7.70;4.85;;;;;;;15.68;41.34;93675.00;5108911;22;20035;-90
2021/12/19 12:46:51;;;;;;;6.65;4.50;;;;;;;15.68;41.37;93659.41;5108269;22;20060;-90
2021/12/19 12:49:34;;;;;;;6.43;4.53;;;;;;;15.67;41.46;93662.63;5045419;28;20039;-90
2021/12/19 12:52:20;;;;;;;6.65;4.57;;;;;;;15.70;41.11;93653.47;5073206;23;20107;-90